Airfield :
LOGIN :

Register | Disclaimer

   EN    FR    IT 

 










Legend :    VFR   Marginal VFR   IFR   Intensive IFR   Very Intensive IFR
Visi :
Ceiling :
>= 8 km
>= 3000ft
5 to 8 km
1000 to 3000 ft
1500m to 5 km
500 to 1000 ft
800 to 1500m
200 to 500 ft
< 800m
< 200 ft
Symbols :   Thunderstorms  Fog  Heavy snow  Heavy precipitations  Wind > 20 kt
SIGMETs :     Misc.  Thunderstorms  Icing  Turbulence  Mountain Waves  Volcanic Ashes







- Airport Elevation : 143 ft
- IATA code : VDP


EKVD - Kolding Vamdrup

CURRENT METAR :
  • 171820Z AUTO 34009KT //// ///////// 00/M03 Q1001

EXPIRED METARs :
  • 171750Z AUTO 35008KT //// ///////// 00/M03 Q1000
  • 171720Z AUTO 01007KT 340V040 //// ///////// 01/M04 Q0999
  • 171650Z AUTO 02010KT 350V050 //// ///////// 01/M04 Q0998
  • 171620Z AUTO 03011KT 350V070 //// ///////// 01/M04 Q0997
  • 171550Z 03011KT 9999 VCSH FEW015CB BKN020 01/M03 Q0997

Expired Forecast.
No reported NOTAMs for that airfield.



MET'MAP, your aeronautical weather chart ! - Copyright ORBIFLY December 2007 - Disclaimer

ORBIFLY MET'MAP TEAM :

Programming & Development : Alexandra Zaïnal
Concept & Development : Baudouin d'Aumeries
Co-Development & Prog : Marc-Olivier Méhu
Technical & hardware support : Manuel Goepfert

Contact : metmap@orbifly.com




SOURCES & CREDITS :

   NOAA